createdAt,value
2018-12-12T00:00:32.417Z,1015.52
2018-12-12T00:01:32.385Z,1015.49
2018-12-12T00:02:32.349Z,1015.51
2018-12-12T00:03:32.307Z,1015.51
2018-12-12T00:04:32.262Z,1015.50
2018-12-12T00:05:32.229Z,1015.51
2018-12-12T00:06:32.196Z,1015.48
2018-12-12T00:07:32.213Z,1015.46
2018-12-12T00:08:32.114Z,1015.52
2018-12-12T00:09:32.074Z,1015.48
2018-12-12T00:10:32.046Z,1015.51
2018-12-12T00:11:32.002Z,1015.50
2018-12-12T00:12:31.973Z,1015.50
2018-12-12T00:13:31.929Z,1015.48
2018-12-12T00:14:31.882Z,1015.49
2018-12-12T00:15:31.847Z,1015.50
2018-12-12T00:16:31.808Z,1015.51
2018-12-12T00:17:31.770Z,1015.54
2018-12-12T00:18:31.727Z,1015.48
2018-12-12T00:19:31.688Z,1015.50
2018-12-12T00:20:31.655Z,1015.48
2018-12-12T00:21:31.620Z,1015.49
2018-12-12T00:22:31.570Z,1015.50
2018-12-12T00:23:31.541Z,1015.48
2018-12-12T00:24:31.507Z,1015.50
2018-12-12T00:25:31.460Z,1015.50
2018-12-12T00:26:31.435Z,1015.52
2018-12-12T00:27:31.385Z,1015.50
2018-12-12T00:28:31.346Z,1015.54
2018-12-12T00:29:31.309Z,1015.55
2018-12-12T00:30:31.264Z,1015.53
2018-12-12T00:31:31.246Z,1015.55
2018-12-12T00:32:31.189Z,1015.52
2018-12-12T00:33:31.201Z,1015.49
2018-12-12T00:34:31.113Z,1015.46
2018-12-12T00:35:31.076Z,1015.43
2018-12-12T00:36:31.034Z,1015.46
2018-12-12T00:37:30.995Z,1015.47
2018-12-12T00:38:30.960Z,1015.49
2018-12-12T00:39:30.913Z,1015.42
2018-12-12T00:40:30.880Z,1015.40
2018-12-12T00:41:30.846Z,1015.40
2018-12-12T00:42:30.805Z,1015.39
2018-12-12T00:43:30.770Z,1015.39
2018-12-12T00:44:30.730Z,1015.41
2018-12-12T00:45:30.691Z,1015.37
2018-12-12T00:46:30.658Z,1015.34
2018-12-12T00:47:30.620Z,1015.30
2018-12-12T00:48:30.575Z,1015.31
2018-12-12T00:49:30.536Z,1015.35
2018-12-12T00:50:30.498Z,1015.30
2018-12-12T00:51:30.459Z,1015.37
2018-12-12T00:52:30.415Z,1015.34
2018-12-12T00:53:30.386Z,1015.33
2018-12-12T00:54:30.345Z,1015.30
2018-12-12T00:55:30.300Z,1015.32
2018-12-12T00:56:30.265Z,1015.31
2018-12-12T00:57:30.235Z,1015.33
2018-12-12T00:58:30.196Z,1015.32
2018-12-12T00:59:30.155Z,1015.30
2018-12-12T01:00:30.109Z,1015.36
2018-12-12T01:01:30.070Z,1015.36
2018-12-12T01:02:30.037Z,1015.33
2018-12-12T01:03:30.006Z,1015.37
2018-12-12T01:04:29.960Z,1015.41
2018-12-12T01:05:29.920Z,1015.45
2018-12-12T01:06:29.885Z,1015.48
2018-12-12T01:07:29.848Z,1015.48
2018-12-12T01:08:29.814Z,1015.46
2018-12-12T01:09:29.771Z,1015.47
2018-12-12T01:10:29.735Z,1015.48
2018-12-12T01:11:29.699Z,1015.52
2018-12-12T01:12:29.645Z,1015.51
2018-12-12T01:13:29.610Z,1015.52
2018-12-12T01:14:29.582Z,1015.55
2018-12-12T01:15:29.536Z,1015.56
2018-12-12T01:16:29.516Z,1015.56
2018-12-12T01:17:29.466Z,1015.57
2018-12-12T01:18:29.438Z,1015.54
2018-12-12T01:19:29.382Z,1015.53
2018-12-12T01:20:29.347Z,1015.60
2018-12-12T01:21:29.319Z,1015.62
2018-12-12T01:22:29.273Z,1015.60
2018-12-12T01:23:29.232Z,1015.64
2018-12-12T01:24:29.197Z,1015.65
2018-12-12T01:25:29.170Z,1015.67
2018-12-12T01:26:29.118Z,1015.66
2018-12-12T01:27:29.082Z,1015.68
2018-12-12T01:28:29.041Z,1015.68
2018-12-12T01:29:29.007Z,1015.68
2018-12-12T01:30:28.968Z,1015.68
2018-12-12T01:31:28.922Z,1015.68
2018-12-12T01:32:28.888Z,1015.65
2018-12-12T01:33:28.852Z,1015.66
2018-12-12T01:34:28.807Z,1015.64
2018-12-12T01:35:28.793Z,1015.66
2018-12-12T01:36:28.741Z,1015.65
2018-12-12T01:37:28.702Z,1015.62
2018-12-12T01:38:28.664Z,1015.65
2018-12-12T01:39:28.619Z,1015.65
2018-12-12T01:40:28.586Z,1015.64
2018-12-12T01:41:28.542Z,1015.63
2018-12-12T01:42:28.497Z,1015.66
2018-12-12T01:43:28.484Z,1015.62
2018-12-12T01:44:28.427Z,1015.60
2018-12-12T01:45:28.388Z,1015.59
2018-12-12T01:46:28.353Z,1015.63
2018-12-12T01:47:28.317Z,1015.60
2018-12-12T01:48:28.277Z,1015.64
2018-12-12T01:49:28.242Z,1015.67
2018-12-12T01:50:28.208Z,1015.67
2018-12-12T01:51:28.185Z,1015.71
2018-12-12T01:52:28.118Z,1015.70
2018-12-12T01:53:28.087Z,1015.75
2018-12-12T01:54:28.052Z,1015.76
2018-12-12T01:55:28.002Z,1015.73
2018-12-12T01:56:27.972Z,1015.78
2018-12-12T01:57:27.928Z,1015.78
2018-12-12T01:58:27.899Z,1015.79
2018-12-12T01:59:27.855Z,1015.79
2018-12-12T02:00:27.820Z,1015.81
2018-12-12T02:01:27.785Z,1015.83
2018-12-12T02:02:27.754Z,1015.84
2018-12-12T02:03:27.701Z,1015.87
2018-12-12T02:04:27.675Z,1015.87
2018-12-12T02:05:27.634Z,1015.87
2018-12-12T02:06:27.590Z,1015.85
2018-12-12T02:07:27.552Z,1015.86
2018-12-12T02:08:27.513Z,1015.86
2018-12-12T02:09:27.473Z,1015.79
2018-12-12T02:10:27.448Z,1015.86
2018-12-12T02:11:27.408Z,1015.84
2018-12-12T02:12:27.363Z,1015.89
2018-12-12T02:13:27.324Z,1015.82
2018-12-12T02:14:27.289Z,1015.79
2018-12-12T02:15:27.253Z,1015.79
2018-12-12T02:16:27.210Z,1015.80
2018-12-12T02:17:27.164Z,1015.75
2018-12-12T02:18:27.134Z,1015.78
2018-12-12T02:19:27.106Z,1015.80
2018-12-12T02:20:27.055Z,1015.80
2018-12-12T02:21:27.014Z,1015.80
2018-12-12T02:22:26.978Z,1015.81
2018-12-12T02:23:26.940Z,1015.82
2018-12-12T02:24:26.909Z,1015.81
2018-12-12T02:25:26.875Z,1015.81
2018-12-12T02:26:26.827Z,1015.82
2018-12-12T02:27:26.794Z,1015.87
2018-12-12T02:28:26.755Z,1015.84
2018-12-12T02:29:26.719Z,1015.88
2018-12-12T02:30:26.683Z,1015.82
2018-12-12T02:31:26.639Z,1015.80
2018-12-12T02:32:26.592Z,1015.76
2018-12-12T02:33:26.561Z,1015.80
2018-12-12T02:34:26.517Z,1015.74
2018-12-12T02:35:26.482Z,1015.77
2018-12-12T02:36:26.447Z,1015.71
2018-12-12T02:37:26.412Z,1015.76
2018-12-12T02:38:26.370Z,1015.74
2018-12-12T02:39:26.322Z,1015.76
2018-12-12T02:40:26.298Z,1015.76
2018-12-12T02:41:26.263Z,1015.69
2018-12-12T02:42:26.216Z,1015.65
2018-12-12T02:43:26.185Z,1015.69
2018-12-12T02:44:26.146Z,1015.69
2018-12-12T02:45:26.102Z,1015.70
2018-12-12T02:46:26.072Z,1015.70
2018-12-12T02:47:26.041Z,1015.68
2018-12-12T02:48:25.989Z,1015.71
2018-12-12T02:49:25.953Z,1015.69
2018-12-12T02:50:25.920Z,1015.70
2018-12-12T02:51:25.880Z,1015.71
2018-12-12T02:52:25.835Z,1015.68
2018-12-12T02:53:25.800Z,1015.65
2018-12-12T02:54:25.764Z,1015.68
2018-12-12T02:55:25.743Z,1015.69
2018-12-12T02:56:25.682Z,1015.70
2018-12-12T02:57:25.646Z,1015.71
2018-12-12T02:58:25.621Z,1015.69
2018-12-12T02:59:25.570Z,1015.73
2018-12-12T03:00:25.533Z,1015.79
2018-12-12T03:01:25.491Z,1015.82
2018-12-12T03:02:25.447Z,1015.79
2018-12-12T03:03:25.421Z,1015.85
2018-12-12T03:04:25.377Z,1015.86
2018-12-12T03:05:25.346Z,1015.84
2018-12-12T03:06:25.302Z,1015.87
2018-12-12T03:07:25.271Z,1015.91
2018-12-12T03:08:25.234Z,1015.89
2018-12-12T03:09:25.188Z,1015.90
2018-12-12T03:10:25.152Z,1015.95
2018-12-12T03:11:25.122Z,1015.95
2018-12-12T03:12:25.085Z,1015.94
2018-12-12T03:13:25.036Z,1015.97
2018-12-12T03:14:24.996Z,1015.92
2018-12-12T03:15:24.987Z,1015.91
2018-12-12T03:16:24.932Z,1015.94
2018-12-12T03:17:24.891Z,1015.94
2018-12-12T03:18:24.848Z,1015.90
2018-12-12T03:19:24.813Z,1015.91
2018-12-12T03:20:24.771Z,1015.94
2018-12-12T03:21:24.733Z,1015.92
2018-12-12T03:22:24.703Z,1015.90
2018-12-12T03:23:24.658Z,1015.90
2018-12-12T03:24:24.621Z,1015.96
2018-12-12T03:25:24.580Z,1015.96
2018-12-12T03:26:24.549Z,1015.97
2018-12-12T03:27:24.517Z,1016.00
2018-12-12T03:28:24.482Z,1015.99
2018-12-12T03:29:24.432Z,1016.00
2018-12-12T03:30:24.402Z,1015.98
2018-12-12T03:31:24.352Z,1015.95
2018-12-12T03:32:24.333Z,1015.95
2018-12-12T03:33:24.286Z,1015.92
2018-12-12T03:34:24.247Z,1015.92
2018-12-12T03:35:24.221Z,1015.90
2018-12-12T03:36:24.176Z,1015.88
2018-12-12T03:37:24.217Z,1015.87
2018-12-12T03:38:24.098Z,1015.85
2018-12-12T03:39:24.057Z,1015.80
2018-12-12T03:40:24.017Z,1015.84
2018-12-12T03:41:23.982Z,1015.80
2018-12-12T03:42:23.942Z,1015.77
2018-12-12T03:43:23.918Z,1015.76
2018-12-12T03:44:23.862Z,1015.76
2018-12-12T03:45:23.830Z,1015.76
2018-12-12T03:46:23.785Z,1015.79
2018-12-12T03:47:23.814Z,1015.76
2018-12-12T03:48:23.713Z,1015.75
2018-12-12T03:49:23.674Z,1015.78
2018-12-12T03:50:23.639Z,1015.73
2018-12-12T03:51:23.594Z,1015.73
2018-12-12T03:52:23.563Z,1015.73
2018-12-12T03:53:23.524Z,1015.73
2018-12-12T03:54:23.485Z,1015.74
2018-12-12T03:55:23.447Z,1015.74
2018-12-12T03:56:23.406Z,1015.71
2018-12-12T03:57:23.373Z,1015.67
2018-12-12T03:58:23.350Z,1015.70
2018-12-12T03:59:23.300Z,1015.73
2018-12-12T04:00:23.260Z,1015.68
2018-12-12T04:01:23.218Z,1015.71
2018-12-12T04:02:23.186Z,1015.74
2018-12-12T04:03:23.149Z,1015.79
2018-12-12T04:04:23.113Z,1015.80
2018-12-12T04:05:23.066Z,1015.80
2018-12-12T04:06:23.023Z,1015.81
2018-12-12T04:07:22.993Z,1015.84
2018-12-12T04:08:22.964Z,1015.84
2018-12-12T04:09:22.923Z,1015.84
2018-12-12T04:10:22.885Z,1015.86
2018-12-12T04:11:22.842Z,1015.83
2018-12-12T04:12:22.804Z,1015.85
2018-12-12T04:13:22.765Z,1015.83
2018-12-12T04:14:22.730Z,1015.80
2018-12-12T04:15:22.700Z,1015.77
2018-12-12T04:16:22.651Z,1015.79
2018-12-12T04:17:22.624Z,1015.78
2018-12-12T04:18:22.579Z,1015.75
2018-12-12T04:19:22.532Z,1015.76
2018-12-12T04:20:22.509Z,1015.78
2018-12-12T04:21:22.468Z,1015.77
2018-12-12T04:22:22.429Z,1015.74
2018-12-12T04:23:22.388Z,1015.71
2018-12-12T04:24:22.354Z,1015.70
2018-12-12T04:25:22.310Z,1015.66
2018-12-12T04:26:22.277Z,1015.69
2018-12-12T04:27:22.231Z,1015.67
2018-12-12T04:28:22.196Z,1015.69
2018-12-12T04:29:22.156Z,1015.69
2018-12-12T04:30:22.124Z,1015.69
2018-12-12T04:31:22.083Z,1015.71
2018-12-12T04:32:22.046Z,1015.74
2018-12-12T04:33:22.006Z,1015.72
2018-12-12T04:34:21.971Z,1015.73
2018-12-12T04:35:21.932Z,1015.73
2018-12-12T04:36:21.900Z,1015.70
2018-12-12T04:37:21.865Z,1015.70
2018-12-12T04:38:21.819Z,1015.66
2018-12-12T04:39:21.785Z,1015.65
2018-12-12T04:40:21.751Z,1015.68
2018-12-12T04:41:21.708Z,1015.69
2018-12-12T04:42:21.673Z,1015.72
2018-12-12T04:43:21.629Z,1015.69
2018-12-12T04:44:21.593Z,1015.70
2018-12-12T04:45:21.559Z,1015.74
2018-12-12T04:46:21.517Z,1015.72
2018-12-12T04:47:21.488Z,1015.72
2018-12-12T04:48:21.445Z,1015.71
2018-12-12T04:49:21.409Z,1015.67
2018-12-12T04:50:21.381Z,1015.67
2018-12-12T04:51:21.334Z,1015.63
2018-12-12T04:52:21.301Z,1015.67
2018-12-12T04:53:21.259Z,1015.59
2018-12-12T04:54:21.221Z,1015.63
2018-12-12T04:55:21.177Z,1015.58
2018-12-12T04:56:21.138Z,1015.62
2018-12-12T04:57:21.105Z,1015.63
2018-12-12T04:58:21.067Z,1015.64
2018-12-12T04:59:21.035Z,1015.61
2018-12-12T05:00:20.991Z,1015.64
2018-12-12T05:01:20.949Z,1015.66
2018-12-12T05:02:20.912Z,1015.68
2018-12-12T05:03:20.881Z,1015.67
2018-12-12T05:04:20.840Z,1015.63
2018-12-12T05:05:20.806Z,1015.64
2018-12-12T05:06:20.779Z,1015.66
2018-12-12T05:07:20.725Z,1015.66
2018-12-12T05:08:20.695Z,1015.70
2018-12-12T05:09:20.650Z,1015.72
2018-12-12T05:10:20.621Z,1015.70
2018-12-12T05:11:20.585Z,1015.74
2018-12-12T05:12:20.540Z,1015.76
2018-12-12T05:13:20.497Z,1015.78
2018-12-12T05:14:20.461Z,1015.82
2018-12-12T05:15:20.424Z,1015.80
2018-12-12T05:16:20.382Z,1015.85
2018-12-12T05:17:20.343Z,1015.82
2018-12-12T05:18:20.311Z,1015.83
2018-12-12T05:19:20.266Z,1015.84
2018-12-12T05:20:20.248Z,1015.89
2018-12-12T05:21:20.197Z,1015.88
2018-12-12T05:22:20.162Z,1015.88
2018-12-12T05:23:20.124Z,1015.89
2018-12-12T05:24:20.078Z,1015.86
2018-12-12T05:25:20.051Z,1015.91
2018-12-12T05:26:20.014Z,1015.87
2018-12-12T05:27:19.976Z,1015.89
2018-12-12T05:28:19.932Z,1015.89
2018-12-12T05:29:19.897Z,1015.87
2018-12-12T05:30:19.851Z,1015.82
2018-12-12T05:31:19.822Z,1015.83
2018-12-12T05:32:19.780Z,1015.88
2018-12-12T05:33:19.741Z,1015.83
2018-12-12T05:34:19.706Z,1015.88
2018-12-12T05:35:19.667Z,1015.88
2018-12-12T05:36:19.636Z,1015.90
2018-12-12T05:37:19.593Z,1015.94
2018-12-12T05:38:19.553Z,1015.91
2018-12-12T05:39:19.517Z,1015.91
2018-12-12T05:40:19.473Z,1015.94
2018-12-12T05:41:19.441Z,1015.94
2018-12-12T05:42:19.398Z,1015.95
2018-12-12T05:43:19.368Z,1015.98
2018-12-12T05:44:19.321Z,1016.00
2018-12-12T05:45:19.284Z,1015.98
2018-12-12T05:46:19.252Z,1015.95
2018-12-12T05:47:19.213Z,1015.95
2018-12-12T05:48:19.187Z,1015.97
2018-12-12T05:49:19.136Z,1015.98
2018-12-12T05:50:19.099Z,1015.99
2018-12-12T05:51:19.064Z,1015.96
2018-12-12T05:52:19.030Z,1015.93
2018-12-12T05:53:18.992Z,1015.96
2018-12-12T05:54:18.952Z,1015.94
2018-12-12T05:55:18.912Z,1015.96
2018-12-12T05:56:18.888Z,1015.95
2018-12-12T05:57:18.836Z,1015.96
2018-12-12T05:58:18.814Z,1015.98
2018-12-12T05:59:18.764Z,1016.01
2018-12-12T06:00:18.729Z,1015.99
2018-12-12T06:01:18.695Z,1015.98
2018-12-12T06:02:18.667Z,1016.00
2018-12-12T06:03:18.618Z,1015.99
2018-12-12T06:04:18.568Z,1016.01
2018-12-12T06:05:18.540Z,1016.00
2018-12-12T06:06:18.494Z,1015.99
2018-12-12T06:07:18.479Z,1015.98
2018-12-12T06:08:18.431Z,1016.02
2018-12-12T06:09:18.403Z,1016.00
2018-12-12T06:10:18.346Z,1016.01
2018-12-12T06:11:18.329Z,1016.01
2018-12-12T06:12:18.282Z,1015.99
2018-12-12T06:13:18.235Z,1016.01
2018-12-12T06:14:18.199Z,1015.98
2018-12-12T06:15:18.173Z,1015.95
2018-12-12T06:16:18.131Z,1016.01
2018-12-12T06:17:18.084Z,1016.02
2018-12-12T06:18:18.050Z,1016.02
2018-12-12T06:19:18.011Z,1016.07
2018-12-12T06:20:17.971Z,1016.04
2018-12-12T06:21:17.931Z,1016.03
2018-12-12T06:22:17.903Z,1016.09
2018-12-12T06:23:17.855Z,1016.11
2018-12-12T06:24:17.824Z,1016.08
2018-12-12T06:25:17.817Z,1016.11
2018-12-12T06:26:17.769Z,1016.07
2018-12-12T06:27:17.705Z,1016.04
2018-12-12T06:28:17.685Z,1016.08
2018-12-12T06:29:17.632Z,1016.05
2018-12-12T06:30:17.606Z,1016.02
2018-12-12T06:31:17.556Z,1016.04
2018-12-12T06:32:17.515Z,1016.08
2018-12-12T06:33:17.496Z,1016.10
2018-12-12T06:34:17.441Z,1016.08
2018-12-12T06:35:17.414Z,1016.04
2018-12-12T06:36:17.371Z,1016.05
2018-12-12T06:37:17.337Z,1016.07
2018-12-12T06:38:17.322Z,1016.07
2018-12-12T06:39:17.254Z,1016.03
2018-12-12T06:40:17.219Z,1016.03
2018-12-12T06:41:17.183Z,1016.04
2018-12-12T06:42:17.165Z,1016.03
2018-12-12T06:43:17.106Z,1016.00
2018-12-12T06:44:17.098Z,1016.04
2018-12-12T06:45:17.030Z,1016.05
2018-12-12T06:46:16.990Z,1016.08
2018-12-12T06:47:16.961Z,1016.12
2018-12-12T06:48:16.916Z,1016.10
2018-12-12T06:49:16.896Z,1016.10
2018-12-12T06:50:16.876Z,1016.17
2018-12-12T06:51:16.797Z,1016.21
2018-12-12T06:52:16.769Z,1016.21
2018-12-12T06:53:16.732Z,1016.20
2018-12-12T06:54:16.688Z,1016.20
2018-12-12T06:55:16.672Z,1016.17
2018-12-12T06:56:16.622Z,1016.17
2018-12-12T06:57:16.582Z,1016.21
2018-12-12T06:58:16.546Z,1016.17
2018-12-12T06:59:16.510Z,1016.16
2018-12-12T07:00:16.468Z,1016.17
2018-12-12T07:01:16.422Z,1016.19
2018-12-12T07:02:16.390Z,1016.17
2018-12-12T07:03:16.351Z,1016.21
2018-12-12T07:04:16.321Z,1016.19
2018-12-12T07:05:16.272Z,1016.25
2018-12-12T07:06:16.240Z,1016.26
2018-12-12T07:07:16.197Z,1016.27
2018-12-12T07:08:16.162Z,1016.28
2018-12-12T07:09:16.120Z,1016.27
2018-12-12T07:10:16.091Z,1016.28
2018-12-12T07:11:16.042Z,1016.29
2018-12-12T07:12:16.015Z,1016.25
2018-12-12T07:13:15.975Z,1016.27
2018-12-12T07:14:15.932Z,1016.27
2018-12-12T07:15:15.897Z,1016.27
2018-12-12T07:16:15.862Z,1016.29
2018-12-12T07:17:15.823Z,1016.31
2018-12-12T07:18:15.778Z,1016.28
2018-12-12T07:19:15.738Z,1016.27
2018-12-12T07:20:15.712Z,1016.26
2018-12-12T07:21:15.672Z,1016.21
2018-12-12T07:22:15.627Z,1016.23
2018-12-12T07:23:15.602Z,1016.25
2018-12-12T07:24:15.561Z,1016.25
2018-12-12T07:25:15.518Z,1016.29
2018-12-12T07:26:15.487Z,1016.26
2018-12-12T07:27:15.438Z,1016.28
2018-12-12T07:28:15.408Z,1016.23
2018-12-12T07:29:15.372Z,1016.25
2018-12-12T07:30:15.336Z,1016.24
2018-12-12T07:31:15.302Z,1016.27
2018-12-12T07:32:15.256Z,1016.25
2018-12-12T07:33:15.217Z,1016.28
2018-12-12T07:34:15.178Z,1016.27
2018-12-12T07:35:15.149Z,1016.27
2018-12-12T07:36:15.103Z,1016.31
2018-12-12T07:37:15.075Z,1016.34
2018-12-12T07:38:15.027Z,1016.35
2018-12-12T07:39:17.874Z,1016.38
2018-12-12T07:40:14.954Z,1016.38
2018-12-12T07:41:14.915Z,1016.40
2018-12-12T07:42:14.875Z,1016.41
2018-12-12T07:43:14.837Z,1016.36
2018-12-12T07:44:14.794Z,1016.40
2018-12-12T07:45:14.769Z,1016.40
2018-12-12T07:46:14.726Z,1016.39
2018-12-12T07:47:14.699Z,1016.41
2018-12-12T07:48:14.654Z,1016.42
2018-12-12T07:49:14.614Z,1016.41
2018-12-12T07:50:14.585Z,1016.41
2018-12-12T07:51:14.538Z,1016.47
2018-12-12T07:52:14.502Z,1016.52
2018-12-12T07:53:14.470Z,1016.48
2018-12-12T07:54:14.432Z,1016.47
2018-12-12T07:55:14.379Z,1016.52
2018-12-12T07:56:14.344Z,1016.53
2018-12-12T07:57:14.377Z,1016.52
2018-12-12T07:58:14.275Z,1016.54
2018-12-12T07:59:14.232Z,1016.55
2018-12-12T08:00:14.205Z,1016.52
2018-12-12T08:01:14.158Z,1016.53
2018-12-12T08:02:14.126Z,1016.53
2018-12-12T08:03:14.094Z,1016.53
2018-12-12T08:04:14.050Z,1016.54
2018-12-12T08:05:14.010Z,1016.51
2018-12-12T08:06:13.970Z,1016.57
2018-12-12T08:07:13.930Z,1016.53
2018-12-12T08:08:13.931Z,1016.52
2018-12-12T08:09:13.859Z,1016.56
2018-12-12T08:10:13.829Z,1016.59
2018-12-12T08:11:13.794Z,1016.54
2018-12-12T08:12:13.764Z,1016.60
2018-12-12T08:13:13.711Z,1016.58
2018-12-12T08:14:13.695Z,1016.58
2018-12-12T08:15:13.635Z,1016.61
2018-12-12T08:16:13.600Z,1016.60
2018-12-12T08:17:13.579Z,1016.63
2018-12-12T08:18:13.517Z,1016.66
2018-12-12T08:19:13.477Z,1016.65
2018-12-12T08:20:13.445Z,1016.59
2018-12-12T08:21:13.406Z,1016.64
2018-12-12T08:22:13.375Z,1016.65
2018-12-12T08:23:13.332Z,1016.62
2018-12-12T08:24:13.334Z,1016.62
2018-12-12T08:25:13.255Z,1016.66
2018-12-12T08:26:13.245Z,1016.71
2018-12-12T08:27:13.192Z,1016.70
2018-12-12T08:28:13.142Z,1016.69
2018-12-12T08:29:13.124Z,1016.68
2018-12-12T08:30:13.080Z,1016.71
2018-12-12T08:31:13.046Z,1016.73
2018-12-12T08:32:13.040Z,1016.69
2018-12-12T08:33:12.961Z,1016.67
2018-12-12T08:34:12.974Z,1016.71
2018-12-12T08:35:12.926Z,1016.76
2018-12-12T08:36:12.844Z,1016.74
2018-12-12T08:37:12.826Z,1016.71
2018-12-12T08:38:12.807Z,1016.74
2018-12-12T08:39:12.756Z,1016.76
2018-12-12T08:40:12.692Z,1016.76
2018-12-12T08:41:12.666Z,1016.78
2018-12-12T08:42:12.626Z,1016.79
2018-12-12T08:43:12.580Z,1016.79
2018-12-12T08:44:12.548Z,1016.79
2018-12-12T08:45:12.558Z,1016.79
2018-12-12T08:46:12.467Z,1016.85
2018-12-12T08:47:12.431Z,1016.84
2018-12-12T08:48:12.396Z,1016.85
2018-12-12T08:49:12.361Z,1016.86
2018-12-12T08:50:12.395Z,1016.84
2018-12-12T08:51:12.277Z,1016.85
2018-12-12T08:52:12.251Z,1016.86
2018-12-12T08:53:12.207Z,1016.84
2018-12-12T08:54:12.168Z,1016.88
2018-12-12T08:55:17.574Z,1016.88
2018-12-12T08:56:12.086Z,1016.89
2018-12-12T08:57:12.048Z,1016.87
2018-12-12T08:58:12.021Z,1016.87
2018-12-12T08:59:11.996Z,1016.89
2018-12-12T09:00:11.964Z,1016.87
2018-12-12T09:01:11.923Z,1016.90
2018-12-12T09:02:11.866Z,1016.88
2018-12-12T09:03:17.417Z,1016.85
2018-12-12T09:04:11.794Z,1016.84
2018-12-12T09:05:11.746Z,1016.89
2018-12-12T09:06:11.712Z,1016.86
2018-12-12T09:07:11.709Z,1016.87
2018-12-12T09:08:11.653Z,1016.86
2018-12-12T09:09:11.598Z,1016.95
2018-12-12T09:10:11.574Z,1016.94
2018-12-12T09:11:11.529Z,1016.94
2018-12-12T09:12:11.487Z,1016.94
2018-12-12T09:13:11.449Z,1016.97
2018-12-12T09:14:11.410Z,1016.95
2018-12-12T09:15:11.389Z,1016.92
2018-12-12T09:16:11.343Z,1016.95
2018-12-12T09:17:11.304Z,1016.94
2018-12-12T09:18:11.263Z,1016.94
2018-12-12T09:19:11.233Z,1016.91
2018-12-12T09:20:11.177Z,1016.91
2018-12-12T09:21:11.152Z,1016.90
2018-12-12T09:22:11.133Z,1016.93
2018-12-12T09:23:11.083Z,1016.92
2018-12-12T09:24:11.042Z,1016.91
2018-12-12T09:25:10.995Z,1016.97
2018-12-12T09:26:10.958Z,1016.93
2018-12-12T09:27:10.918Z,1016.95
2018-12-12T09:28:10.878Z,1016.99
2018-12-12T09:29:10.849Z,1017.01
2018-12-12T09:30:10.827Z,1017.03
2018-12-12T09:31:10.780Z,1017.00
2018-12-12T09:32:10.727Z,1017.00
2018-12-12T09:33:10.713Z,1017.00
2018-12-12T09:34:10.655Z,1016.98
2018-12-12T09:35:10.634Z,1017.01
2018-12-12T09:36:10.593Z,1017.05
2018-12-12T09:37:10.553Z,1017.04
2018-12-12T09:38:10.514Z,1017.01
2018-12-12T09:39:10.474Z,1017.01
2018-12-12T09:40:10.435Z,1016.97
2018-12-12T09:41:10.404Z,1016.97
2018-12-12T09:42:10.360Z,1016.95
2018-12-12T09:43:10.325Z,1016.94
2018-12-12T09:44:10.287Z,1016.99
2018-12-12T09:45:10.255Z,1016.95
2018-12-12T09:46:10.208Z,1016.96
2018-12-12T09:47:10.174Z,1016.95
2018-12-12T09:48:10.139Z,1016.99
2018-12-12T09:49:10.128Z,1016.95
2018-12-12T09:50:10.094Z,1016.96
2018-12-12T09:51:10.024Z,1016.92
2018-12-12T09:52:09.989Z,1016.91
2018-12-12T09:53:09.949Z,1016.91
2018-12-12T09:54:09.904Z,1016.92
2018-12-12T09:55:09.878Z,1016.91
2018-12-12T09:56:10.948Z,1016.89
2018-12-12T09:57:09.798Z,1016.91
2018-12-12T09:58:09.759Z,1016.92
2018-12-12T09:59:09.738Z,1016.92
2018-12-12T10:00:09.690Z,1016.96
2018-12-12T10:01:09.661Z,1016.92
2018-12-12T10:02:09.610Z,1016.95
2018-12-12T10:03:09.575Z,1016.98
2018-12-12T10:04:09.548Z,1016.93
2018-12-12T10:05:09.503Z,1016.91
2018-12-12T10:06:09.473Z,1016.94
2018-12-12T10:07:09.433Z,1016.93
2018-12-12T10:08:09.395Z,1016.92
2018-12-12T10:09:09.353Z,1016.90
2018-12-12T10:10:09.313Z,1016.92
2018-12-12T10:11:09.280Z,1016.94
2018-12-12T10:12:09.242Z,1016.93
2018-12-12T10:13:09.206Z,1016.95
2018-12-12T10:14:09.167Z,1016.93
2018-12-12T10:15:09.129Z,1016.94
2018-12-12T10:16:09.095Z,1016.90
2018-12-12T10:17:09.058Z,1016.92
2018-12-12T10:18:09.011Z,1016.89
2018-12-12T10:19:08.986Z,1016.92
2018-12-12T10:20:08.947Z,1016.88
2018-12-12T10:21:08.902Z,1016.90
2018-12-12T10:22:08.870Z,1016.88
2018-12-12T10:23:08.825Z,1016.85
2018-12-12T10:24:08.796Z,1016.87
2018-12-12T10:25:08.756Z,1016.86
2018-12-12T10:26:08.716Z,1016.82
2018-12-12T10:27:08.677Z,1016.82
2018-12-12T10:28:08.662Z,1016.83
2018-12-12T10:29:08.616Z,1016.78
2018-12-12T10:30:08.572Z,1016.81
2018-12-12T10:31:08.539Z,1016.81
2018-12-12T10:32:08.509Z,1016.79
2018-12-12T10:33:08.488Z,1016.77
2018-12-12T10:34:08.432Z,1016.77
2018-12-12T10:35:08.391Z,1016.79
2018-12-12T10:36:08.360Z,1016.72
2018-12-12T10:37:08.309Z,1016.75
2018-12-12T10:38:08.287Z,1016.75
2018-12-12T10:39:08.239Z,1016.78
2018-12-12T10:40:08.201Z,1016.77
2018-12-12T10:41:08.162Z,1016.75
2018-12-12T10:42:08.120Z,1016.74
2018-12-12T10:43:08.082Z,1016.73
2018-12-12T10:44:08.053Z,1016.72
2018-12-12T10:45:08.021Z,1016.71
2018-12-12T10:46:07.986Z,1016.70
2018-12-12T10:47:07.937Z,1016.73
2018-12-12T10:48:08.341Z,1016.70
2018-12-12T10:49:07.866Z,1016.72
2018-12-12T10:50:07.831Z,1016.68
2018-12-12T10:51:07.783Z,1016.67
2018-12-12T10:52:07.773Z,1016.68
2018-12-12T10:53:07.717Z,1016.63
2018-12-12T10:54:07.680Z,1016.65
2018-12-12T10:55:07.641Z,1016.63
2018-12-12T10:56:07.606Z,1016.64
2018-12-12T10:57:07.581Z,1016.62
2018-12-12T10:58:07.531Z,1016.61
2018-12-12T10:59:07.508Z,1016.60
2018-12-12T11:00:12.714Z,1016.55
2018-12-12T11:01:07.425Z,1016.56
2018-12-12T11:02:07.382Z,1016.54
2018-12-12T11:03:07.341Z,1016.57
2018-12-12T11:04:07.312Z,1016.57
2018-12-12T11:05:07.269Z,1016.57
2018-12-12T11:06:07.228Z,1016.53
2018-12-12T11:07:07.200Z,1016.54
2018-12-12T11:08:07.172Z,1016.53
2018-12-12T11:09:07.131Z,1016.54
2018-12-12T11:10:21.801Z,1016.55
2018-12-12T11:11:07.068Z,1016.48
2018-12-12T11:12:07.026Z,1016.51
2018-12-12T11:13:06.992Z,1016.51
2018-12-12T11:14:06.929Z,1016.48
2018-12-12T11:15:06.909Z,1016.49
2018-12-12T11:16:06.879Z,1016.45
2018-12-12T11:17:06.837Z,1016.47
2018-12-12T11:18:06.793Z,1016.47
2018-12-12T11:19:06.759Z,1016.48
2018-12-12T11:20:06.720Z,1016.43
2018-12-12T11:21:06.687Z,1016.43
2018-12-12T11:22:06.658Z,1016.46
2018-12-12T11:23:06.618Z,1016.45
2018-12-12T11:24:06.573Z,1016.45
2018-12-12T11:25:06.537Z,1016.41
2018-12-12T11:26:06.488Z,1016.39
2018-12-12T11:27:06.459Z,1016.41
2018-12-12T11:28:06.425Z,1016.39
2018-12-12T11:29:06.398Z,1016.41
2018-12-12T11:30:06.353Z,1016.36
2018-12-12T11:31:06.313Z,1016.37
2018-12-12T11:32:06.292Z,1016.41
2018-12-12T11:33:06.238Z,1016.38
2018-12-12T11:34:06.208Z,1016.36
2018-12-12T11:35:06.164Z,1016.36
2018-12-12T11:36:06.155Z,1016.33
2018-12-12T11:37:06.090Z,1016.32
2018-12-12T11:38:06.050Z,1016.31
2018-12-12T11:39:06.033Z,1016.35
2018-12-12T11:40:05.979Z,1016.30
2018-12-12T11:41:05.950Z,1016.29
2018-12-12T11:42:05.914Z,1016.31
2018-12-12T11:43:05.884Z,1016.33
2018-12-12T11:44:05.830Z,1016.28
2018-12-12T11:45:05.809Z,1016.27
2018-12-12T11:46:05.754Z,1016.23
2018-12-12T11:47:05.727Z,1016.20
2018-12-12T11:48:05.685Z,1016.26
2018-12-12T11:49:05.661Z,1016.24
2018-12-12T11:50:05.610Z,1016.27
2018-12-12T11:51:05.584Z,1016.26
2018-12-12T11:52:05.555Z,1016.26
2018-12-12T11:53:05.507Z,1016.24
2018-12-12T11:54:05.479Z,1016.24
2018-12-12T11:55:05.443Z,1016.21
2018-12-12T11:56:05.398Z,1016.19
2018-12-12T11:57:05.364Z,1016.19
2018-12-12T11:58:05.320Z,1016.17
2018-12-12T11:59:05.280Z,1016.16
2018-12-12T12:00:05.259Z,1016.21
2018-12-12T12:01:05.206Z,1016.16
2018-12-12T12:02:05.177Z,1016.19
2018-12-12T12:03:05.132Z,1016.15
2018-12-12T12:04:05.104Z,1016.11
2018-12-12T12:05:05.057Z,1016.15